Oliver, Canada
Current Conditions -  °F | °C
As of 9:00 PM on Monday 20 Oct 2014 (Local Time) from CYYF Reporting Station
Overcast Overcast  
Wind Chill: 55°   Ceiling: 14000
Heat Index: 55°   Visibility: 15mi
Dew Point: 52°   Wind: 14mph
Humidity: 88%   Direction: 170°S
Pressure: 29.7"   Gusts: NA
Location:  49.18°N, 119.55°W
Report Text: CYYF 210400Z 17012KT 15SM OVC140 13/11 A2970 RMK AC8 SLP061 DENSITY ALT 1400FT
Loading
Personal Weather Stations






























Interactive Weather Map
Tropical Storm Tracking
New forecast layout! Learn more

10-Day Weather Forecast

Advertisements
Track Severe Weather on mobile